sensor_id;sensor_type;location;lat;lon;timestamp;pressure;altitude;pressure_sealevel;temperature;humidity
81033;BME280;70514;52.478;6.102;2023-11-21T00:00:46;101149.91;;;7.89;100.00
81033;BME280;70514;52.478;6.102;2023-11-21T00:03:14;101146.84;;;8.40;100.00
81033;BME280;70514;52.478;6.102;2023-11-21T00:05:43;101152.09;;;8.85;100.00
81033;BME280;70514;52.478;6.102;2023-11-21T00:08:10;101157.78;;;9.14;100.00
81033;BME280;70514;52.478;6.102;2023-11-21T00:10:39;101159.75;;;9.25;100.00
81033;BME280;70514;52.478;6.102;2023-11-21T00:13:07;101158.91;;;9.26;100.00
81033;BME280;70514;52.478;6.102;2023-11-21T00:15:35;101160.44;;;9.18;100.00
81033;BME280;70514;52.478;6.102;2023-11-21T00:18:03;101164.25;;;9.37;100.00
81033;BME280;70514;52.478;6.102;2023-11-21T00:20:31;101166.88;;;9.40;100.00
81033;BME280;70514;52.478;6.102;2023-11-21T00:22:58;101163.78;;;9.59;100.00
81033;BME280;70514;52.478;6.102;2023-11-21T00:25:27;101168.19;;;9.66;100.00
81033;BME280;70514;52.478;6.102;2023-11-21T00:27:55;101166.47;;;9.65;100.00
81033;BME280;70514;52.478;6.102;2023-11-21T00:30:22;101174.44;;;9.79;100.00
81033;BME280;70514;52.478;6.102;2023-11-21T00:32:50;101167.16;;;9.57;100.00
81033;BME280;70514;52.478;6.102;2023-11-21T00:35:18;101165.91;;;9.35;100.00
81033;BME280;70514;52.478;6.102;2023-11-21T00:37:46;101165.00;;;9.31;100.00
81033;BME280;70514;52.478;6.102;2023-11-21T00:40:14;101166.06;;;9.44;100.00
81033;BME280;70514;52.478;6.102;2023-11-21T00:42:43;101172.09;;;9.45;100.00
81033;BME280;70514;52.478;6.102;2023-11-21T00:45:11;101182.47;;;9.51;100.00
81033;BME280;70514;52.478;6.102;2023-11-21T00:47:39;101184.53;;;9.68;100.00
81033;BME280;70514;52.478;6.102;2023-11-21T00:50:07;101180.50;;;9.84;100.00
81033;BME280;70514;52.478;6.102;2023-11-21T00:52:35;101174.69;;;9.96;100.00
81033;BME280;70514;52.478;6.102;2023-11-21T00:55:04;101180.69;;;9.96;100.00
81033;BME280;70514;52.478;6.102;2023-11-21T00:57:34;101182.41;;;9.96;100.00
81033;BME280;70514;52.478;6.102;2023-11-21T01:00:02;101177.41;;;10.03;100.00
81033;BME280;70514;52.478;6.102;2023-11-21T01:02:35;101182.59;;;10.08;100.00
81033;BME280;70514;52.478;6.102;2023-11-21T01:05:03;101186.09;;;10.11;100.00
81033;BME280;70514;52.478;6.102;2023-11-21T01:07:31;101188.13;;;9.79;100.00
81033;BME280;70514;52.478;6.102;2023-11-21T01:09:59;101201.03;;;9.81;100.00
81033;BME280;70514;52.478;6.102;2023-11-21T01:12:26;101199.84;;;9.62;100.00
81033;BME280;70514;52.478;6.102;2023-11-21T01:14:54;101206.69;;;9.62;100.00
81033;BME280;70514;52.478;6.102;2023-11-21T01:17:22;101207.75;;;9.74;100.00
81033;BME280;70514;52.478;6.102;2023-11-21T01:19:50;101207.28;;;9.49;100.00
81033;BME280;70514;52.478;6.102;2023-11-21T01:22:18;101212.53;;;9.53;100.00
81033;BME280;70514;52.478;6.102;2023-11-21T01:24:49;101219.09;;;9.37;100.00
81033;BME280;70514;52.478;6.102;2023-11-21T01:27:17;101218.75;;;9.22;100.00
81033;BME280;70514;52.478;6.102;2023-11-21T01:29:46;101215.88;;;9.07;100.00
81033;BME280;70514;52.478;6.102;2023-11-21T01:32:13;101216.63;;;9.02;100.00
81033;BME280;70514;52.478;6.102;2023-11-21T01:34:41;101224.97;;;8.91;100.00
81033;BME280;70514;52.478;6.102;2023-11-21T01:37:09;101225.94;;;8.96;100.00
81033;BME280;70514;52.478;6.102;2023-11-21T01:39:39;101219.44;;;9.14;100.00
81033;BME280;70514;52.478;6.102;2023-11-21T01:42:07;101221.38;;;9.24;100.00
81033;BME280;70514;52.478;6.102;2023-11-21T01:44:35;101222.84;;;9.56;100.00
81033;BME280;70514;52.478;6.102;2023-11-21T01:47:03;101225.16;;;9.88;100.00
81033;BME280;70514;52.478;6.102;2023-11-21T01:49:33;101235.72;;;10.06;100.00
81033;BME280;70514;52.478;6.102;2023-11-21T01:52:01;101224.44;;;9.96;100.00
81033;BME280;70514;52.478;6.102;2023-11-21T01:54:30;101232.69;;;10.25;100.00
81033;BME280;70514;52.478;6.102;2023-11-21T01:56:59;101220.69;;;10.27;100.00
81033;BME280;70514;52.478;6.102;2023-11-21T01:59:34;101243.16;;;10.37;100.00
81033;BME280;70514;52.478;6.102;2023-11-21T02:02:05;101228.41;;;10.26;100.00
81033;BME280;70514;52.478;6.102;2023-11-21T02:04:34;101226.66;;;10.26;100.00
81033;BME280;70514;52.478;6.102;2023-11-21T02:07:03;101236.78;;;10.15;100.00
81033;BME280;70514;52.478;6.102;2023-11-21T02:09:33;101240.50;;;9.85;100.00
81033;BME280;70514;52.478;6.102;2023-11-21T02:12:01;101234.59;;;9.89;100.00
81033;BME280;70514;52.478;6.102;2023-11-21T02:14:30;101241.50;;;9.91;100.00
81033;BME280;70514;52.478;6.102;2023-11-21T02:16:58;101243.06;;;9.83;100.00
81033;BME280;70514;52.478;6.102;2023-11-21T02:19:26;101254.38;;;9.93;100.00
81033;BME280;70514;52.478;6.102;2023-11-21T02:21:55;101255.28;;;9.96;100.00
81033;BME280;70514;52.478;6.102;2023-11-21T02:24:27;101256.50;;;10.15;100.00
81033;BME280;70514;52.478;6.102;2023-11-21T02:26:54;101252.88;;;10.04;100.00
81033;BME280;70514;52.478;6.102;2023-11-21T02:29:22;101249.38;;;10.02;100.00
81033;BME280;70514;52.478;6.102;2023-11-21T02:31:55;101253.81;;;10.10;100.00
81033;BME280;70514;52.478;6.102;2023-11-21T02:34:23;101261.03;;;10.28;100.00
81033;BME280;70514;52.478;6.102;2023-11-21T02:36:53;101260.28;;;10.35;100.00
81033;BME280;70514;52.478;6.102;2023-11-21T02:39:21;101253.34;;;10.31;100.00
81033;BME280;70514;52.478;6.102;2023-11-21T02:41:52;101256.19;;;10.48;100.00
81033;BME280;70514;52.478;6.102;2023-11-21T02:44:20;101240.31;;;10.22;100.00
81033;BME280;70514;52.478;6.102;2023-11-21T02:46:48;101267.94;;;10.32;100.00
81033;BME280;70514;52.478;6.102;2023-11-21T02:49:16;101261.22;;;10.40;100.00
81033;BME280;70514;52.478;6.102;2023-11-21T02:51:45;101267.25;;;10.42;100.00
81033;BME280;70514;52.478;6.102;2023-11-21T02:54:13;101263.91;;;10.46;100.00
81033;BME280;70514;52.478;6.102;2023-11-21T02:56:42;101269.78;;;10.39;100.00
81033;BME280;70514;52.478;6.102;2023-11-21T02:59:09;101265.47;;;9.89;100.00
81033;BME280;70514;52.478;6.102;2023-11-21T03:01:37;101259.75;;;10.06;100.00
81033;BME280;70514;52.478;6.102;2023-11-21T03:04:05;101255.56;;;10.11;100.00
81033;BME280;70514;52.478;6.102;2023-11-21T03:06:33;101264.09;;;10.09;100.00
81033;BME280;70514;52.478;6.102;2023-11-21T03:09:01;101267.44;;;10.03;100.00
81033;BME280;70514;52.478;6.102;2023-11-21T03:11:29;101258.69;;;9.95;100.00
81033;BME280;70514;52.478;6.102;2023-11-21T03:13:56;101264.41;;;10.24;100.00
81033;BME280;70514;52.478;6.102;2023-11-21T03:16:24;101263.38;;;10.16;100.00
81033;BME280;70514;52.478;6.102;2023-11-21T03:18:53;101265.13;;;10.17;100.00
81033;BME280;70514;52.478;6.102;2023-11-21T03:21:21;101266.66;;;10.07;100.00
81033;BME280;70514;52.478;6.102;2023-11-21T03:23:49;101267.56;;;10.11;100.00
81033;BME280;70514;52.478;6.102;2023-11-21T03:26:16;101261.53;;;10.09;100.00
81033;BME280;70514;52.478;6.102;2023-11-21T03:28:44;101271.75;;;10.57;100.00
81033;BME280;70514;52.478;6.102;2023-11-21T03:31:13;101272.50;;;10.48;100.00
81033;BME280;70514;52.478;6.102;2023-11-21T03:33:41;101275.97;;;10.52;100.00
81033;BME280;70514;52.478;6.102;2023-11-21T03:36:09;101276.22;;;10.65;100.00
81033;BME280;70514;52.478;6.102;2023-11-21T03:38:37;101283.13;;;10.70;100.00
81033;BME280;70514;52.478;6.102;2023-11-21T03:41:05;101281.38;;;10.65;100.00
81033;BME280;70514;52.478;6.102;2023-11-21T03:43:33;101275.28;;;10.60;100.00
81033;BME280;70514;52.478;6.102;2023-11-21T03:46:00;101282.22;;;10.68;100.00
81033;BME280;70514;52.478;6.102;2023-11-21T03:48:28;101280.53;;;10.67;99.53
81033;BME280;70514;52.478;6.102;2023-11-21T03:50:56;101290.41;;;10.42;100.00
81033;BME280;70514;52.478;6.102;2023-11-21T03:53:24;101293.75;;;10.37;100.00
81033;BME280;70514;52.478;6.102;2023-11-21T03:55:52;101294.69;;;10.42;100.00
81033;BME280;70514;52.478;6.102;2023-11-21T03:58:19;101286.34;;;10.55;100.00
81033;BME280;70514;52.478;6.102;2023-11-21T04:00:47;101297.28;;;10.40;100.00
81033;BME280;70514;52.478;6.102;2023-11-21T04:03:18;101296.66;;;10.55;100.00
81033;BME280;70514;52.478;6.102;2023-11-21T04:05:47;101291.34;;;10.47;100.00
81033;BME280;70514;52.478;6.102;2023-11-21T04:08:15;101296.75;;;10.61;100.00
81033;BME280;70514;52.478;6.102;2023-11-21T04:10:42;101301.97;;;10.65;99.53
81033;BME280;70514;52.478;6.102;2023-11-21T04:13:10;101308.75;;;10.60;100.00
81033;BME280;70514;52.478;6.102;2023-11-21T04:15:38;101305.13;;;10.49;100.00
81033;BME280;70514;52.478;6.102;2023-11-21T04:18:06;101311.84;;;10.40;100.00
81033;BME280;70514;52.478;6.102;2023-11-21T04:20:34;101310.53;;;10.64;100.00
81033;BME280;70514;52.478;6.102;2023-11-21T04:23:02;101321.59;;;10.59;100.00
81033;BME280;70514;52.478;6.102;2023-11-21T04:25:30;101323.53;;;10.72;100.00
81033;BME280;70514;52.478;6.102;2023-11-21T04:27:58;101320.84;;;10.64;99.91
81033;BME280;70514;52.478;6.102;2023-11-21T04:30:26;101322.19;;;10.43;100.00
81033;BME280;70514;52.478;6.102;2023-11-21T04:32:54;101320.28;;;9.86;100.00
81033;BME280;70514;52.478;6.102;2023-11-21T04:35:21;101327.84;;;9.36;100.00
81033;BME280;70514;52.478;6.102;2023-11-21T04:37:49;101343.00;;;9.24;100.00
81033;BME280;70514;52.478;6.102;2023-11-21T04:40:18;101343.19;;;8.94;100.00
81033;BME280;70514;52.478;6.102;2023-11-21T04:42:48;101344.66;;;8.83;100.00
81033;BME280;70514;52.478;6.102;2023-11-21T04:45:16;101345.72;;;9.30;100.00
81033;BME280;70514;52.478;6.102;2023-11-21T04:47:44;101343.81;;;9.22;100.00
81033;BME280;70514;52.478;6.102;2023-11-21T04:50:12;101344.56;;;9.16;100.00
81033;BME280;70514;52.478;6.102;2023-11-21T04:52:40;101346.56;;;9.71;100.00
81033;BME280;70514;52.478;6.102;2023-11-21T04:55:08;101339.19;;;9.90;100.00
81033;BME280;70514;52.478;6.102;2023-11-21T04:57:38;101342.59;;;10.32;100.00
81033;BME280;70514;52.478;6.102;2023-11-21T05:00:10;101354.06;;;10.49;100.00
81033;BME280;70514;52.478;6.102;2023-11-21T05:02:39;101370.41;;;10.51;100.00
81033;BME280;70514;52.478;6.102;2023-11-21T05:05:07;101363.53;;;10.52;100.00
81033;BME280;70514;52.478;6.102;2023-11-21T05:07:39;101372.13;;;10.52;100.00
81033;BME280;70514;52.478;6.102;2023-11-21T05:10:07;101374.00;;;10.62;100.00
81033;BME280;70514;52.478;6.102;2023-11-21T05:12:40;101383.03;;;10.36;100.00
81033;BME280;70514;52.478;6.102;2023-11-21T05:15:08;101382.97;;;10.35;100.00
81033;BME280;70514;52.478;6.102;2023-11-21T05:17:40;101380.25;;;10.26;100.00
81033;BME280;70514;52.478;6.102;2023-11-21T05:20:17;101385.88;;;10.53;100.00
81033;BME280;70514;52.478;6.102;2023-11-21T05:22:48;101391.69;;;10.41;100.00
81033;BME280;70514;52.478;6.102;2023-11-21T05:25:16;101397.78;;;10.46;100.00
81033;BME280;70514;52.478;6.102;2023-11-21T05:27:46;101393.19;;;10.32;100.00
81033;BME280;70514;52.478;6.102;2023-11-21T05:30:14;101402.03;;;10.44;100.00
81033;BME280;70514;52.478;6.102;2023-11-21T05:32:42;101397.78;;;10.48;100.00
81033;BME280;70514;52.478;6.102;2023-11-21T05:35:10;101399.41;;;10.41;100.00
81033;BME280;70514;52.478;6.102;2023-11-21T05:37:43;101401.19;;;10.47;100.00
81033;BME280;70514;52.478;6.102;2023-11-21T05:40:11;101399.31;;;10.35;100.00
81033;BME280;70514;52.478;6.102;2023-11-21T05:42:40;101404.00;;;10.59;100.00
81033;BME280;70514;52.478;6.102;2023-11-21T05:45:08;101403.13;;;10.58;100.00
81033;BME280;70514;52.478;6.102;2023-11-21T05:47:41;101402.38;;;10.64;100.00
81033;BME280;70514;52.478;6.102;2023-11-21T05:50:11;101401.50;;;10.63;99.73
81033;BME280;70514;52.478;6.102;2023-11-21T05:52:46;101409.13;;;10.57;100.00
81033;BME280;70514;52.478;6.102;2023-11-21T05:55:14;101427.25;;;10.63;100.00
81033;BME280;70514;52.478;6.102;2023-11-21T05:57:43;101431.47;;;10.58;99.59
81033;BME280;70514;52.478;6.102;2023-11-21T06:00:13;101438.50;;;10.22;100.00
81033;BME280;70514;52.478;6.102;2023-11-21T06:02:52;101448.16;;;9.92;100.00
81033;BME280;70514;52.478;6.102;2023-11-21T06:05:23;101444.00;;;9.98;100.00
81033;BME280;70514;52.478;6.102;2023-11-21T06:07:55;101455.53;;;9.76;100.00
81033;BME280;70514;52.478;6.102;2023-11-21T06:10:27;101457.28;;;9.40;100.00
81033;BME280;70514;52.478;6.102;2023-11-21T06:12:56;101460.06;;;9.12;100.00
81033;BME280;70514;52.478;6.102;2023-11-21T06:15:29;101467.41;;;8.98;100.00
81033;BME280;70514;52.478;6.102;2023-11-21T06:17:57;101476.16;;;9.05;100.00
81033;BME280;70514;52.478;6.102;2023-11-21T06:20:26;101476.81;;;8.98;100.00
81033;BME280;70514;52.478;6.102;2023-11-21T06:22:55;101483.75;;;9.02;100.00
81033;BME280;70514;52.478;6.102;2023-11-21T06:25:22;101486.09;;;8.92;100.00
81033;BME280;70514;52.478;6.102;2023-11-21T06:27:50;101485.13;;;8.87;100.00
81033;BME280;70514;52.478;6.102;2023-11-21T06:30:20;101484.25;;;8.87;100.00
81033;BME280;70514;52.478;6.102;2023-11-21T06:32:49;101488.41;;;8.82;100.00
81033;BME280;70514;52.478;6.102;2023-11-21T06:35:18;101496.91;;;8.79;100.00
81033;BME280;70514;52.478;6.102;2023-11-21T06:37:46;101496.84;;;8.78;100.00
81033;BME280;70514;52.478;6.102;2023-11-21T06:40:19;101504.84;;;9.21;100.00
81033;BME280;70514;52.478;6.102;2023-11-21T06:42:48;101507.13;;;9.11;100.00
81033;BME280;70514;52.478;6.102;2023-11-21T06:45:16;101509.84;;;9.17;100.00
81033;BME280;70514;52.478;6.102;2023-11-21T06:47:45;101518.06;;;9.36;100.00
81033;BME280;70514;52.478;6.102;2023-11-21T06:50:13;101514.88;;;9.48;100.00
81033;BME280;70514;52.478;6.102;2023-11-21T06:52:41;101516.72;;;9.54;100.00
81033;BME280;70514;52.478;6.102;2023-11-21T06:55:10;101519.91;;;9.79;100.00
81033;BME280;70514;52.478;6.102;2023-11-21T06:57:38;101528.50;;;9.44;100.00
81033;BME280;70514;52.478;6.102;2023-11-21T07:00:06;101530.25;;;9.11;100.00
81033;BME280;70514;52.478;6.102;2023-11-21T07:02:37;101553.16;;;9.03;100.00
81033;BME280;70514;52.478;6.102;2023-11-21T07:05:06;101550.38;;;8.94;100.00
81033;BME280;70514;52.478;6.102;2023-11-21T07:07:35;101549.31;;;8.86;100.00
81033;BME280;70514;52.478;6.102;2023-11-21T07:10:05;101552.47;;;8.77;100.00
81033;BME280;70514;52.478;6.102;2023-11-21T07:12:33;101557.66;;;8.79;100.00
81033;BME280;70514;52.478;6.102;2023-11-21T07:15:03;101568.13;;;8.86;100.00
81033;BME280;70514;52.478;6.102;2023-11-21T07:17:33;101577.03;;;8.99;100.00
81033;BME280;70514;52.478;6.102;2023-11-21T07:20:02;101578.94;;;9.06;100.00
81033;BME280;70514;52.478;6.102;2023-11-21T07:22:30;101591.56;;;8.99;100.00
81033;BME280;70514;52.478;6.102;2023-11-21T07:24:58;101590.72;;;8.98;100.00
81033;BME280;70514;52.478;6.102;2023-11-21T07:27:26;101596.53;;;8.92;100.00
81033;BME280;70514;52.478;6.102;2023-11-21T07:29:53;101600.84;;;8.93;100.00
81033;BME280;70514;52.478;6.102;2023-11-21T07:32:21;101591.53;;;9.64;100.00
81033;BME280;70514;52.478;6.102;2023-11-21T07:34:49;101608.72;;;10.00;100.00
81033;BME280;70514;52.478;6.102;2023-11-21T07:37:17;101615.50;;;9.62;100.00
81033;BME280;70514;52.478;6.102;2023-11-21T07:39:46;101622.94;;;9.51;100.00
81033;BME280;70514;52.478;6.102;2023-11-21T07:42:14;101628.13;;;9.53;100.00
81033;BME280;70514;52.478;6.102;2023-11-21T07:44:42;101637.53;;;9.52;100.00
81033;BME280;70514;52.478;6.102;2023-11-21T07:47:10;101629.38;;;9.68;100.00
81033;BME280;70514;52.478;6.102;2023-11-21T07:49:38;101634.78;;;9.79;100.00
81033;BME280;70514;52.478;6.102;2023-11-21T07:52:05;101630.72;;;9.54;100.00
81033;BME280;70514;52.478;6.102;2023-11-21T07:54:33;101641.22;;;9.62;100.00
81033;BME280;70514;52.478;6.102;2023-11-21T07:57:03;101642.84;;;9.58;100.00
81033;BME280;70514;52.478;6.102;2023-11-21T07:59:31;101646.31;;;9.60;100.00
81033;BME280;70514;52.478;6.102;2023-11-21T08:01:59;101644.78;;;9.67;100.00
81033;BME280;70514;52.478;6.102;2023-11-21T08:04:27;101652.16;;;9.55;100.00
81033;BME280;70514;52.478;6.102;2023-11-21T08:06:58;101653.59;;;9.44;100.00
81033;BME280;70514;52.478;6.102;2023-11-21T08:09:26;101661.94;;;9.68;100.00
81033;BME280;70514;52.478;6.102;2023-11-21T08:11:54;101672.66;;;10.19;100.00
81033;BME280;70514;52.478;6.102;2023-11-21T08:14:22;101671.50;;;10.44;100.00
81033;BME280;70514;52.478;6.102;2023-11-21T08:16:52;101680.84;;;10.79;100.00
81033;BME280;70514;52.478;6.102;2023-11-21T08:19:25;101682.38;;;10.31;100.00
81033;BME280;70514;52.478;6.102;2023-11-21T08:21:53;101684.56;;;10.51;100.00
81033;BME280;70514;52.478;6.102;2023-11-21T08:24:22;101697.97;;;11.19;98.61
81033;BME280;70514;52.478;6.102;2023-11-21T08:26:49;101703.91;;;10.73;100.00
81033;BME280;70514;52.478;6.102;2023-11-21T08:29:18;101705.41;;;11.02;99.14
81033;BME280;70514;52.478;6.102;2023-11-21T08:31:46;101704.56;;;10.64;100.00
81033;BME280;70514;52.478;6.102;2023-11-21T08:34:14;101708.81;;;11.01;99.05
81033;BME280;70514;52.478;6.102;2023-11-21T08:36:43;101711.22;;;10.94;99.54
81033;BME280;70514;52.478;6.102;2023-11-21T08:39:11;101723.72;;;11.16;98.41
81033;BME280;70514;52.478;6.102;2023-11-21T08:41:41;101728.59;;;11.04;99.15
81033;BME280;70514;52.478;6.102;2023-11-21T08:44:09;101726.94;;;11.06;98.72
81033;BME280;70514;52.478;6.102;2023-11-21T08:46:37;101720.44;;;10.83;100.00
81033;BME280;70514;52.478;6.102;2023-11-21T08:49:06;101731.03;;;10.57;100.00
81033;BME280;70514;52.478;6.102;2023-11-21T08:51:34;101728.56;;;10.26;100.00
81033;BME280;70514;52.478;6.102;2023-11-21T08:54:02;101723.81;;;10.80;100.00
81033;BME280;70514;52.478;6.102;2023-11-21T08:56:34;101730.16;;;10.57;100.00
81033;BME280;70514;52.478;6.102;2023-11-21T08:59:02;101736.31;;;10.62;100.00
81033;BME280;70514;52.478;6.102;2023-11-21T09:01:31;101731.81;;;11.36;97.65
81033;BME280;70514;52.478;6.102;2023-11-21T09:03:59;101740.56;;;10.24;100.00
81033;BME280;70514;52.478;6.102;2023-11-21T09:06:27;101755.13;;;10.98;99.51
81033;BME280;70514;52.478;6.102;2023-11-21T09:08:55;101766.41;;;11.03;99.21
81033;BME280;70514;52.478;6.102;2023-11-21T09:11:22;101762.44;;;11.63;94.41
81033;BME280;70514;52.478;6.102;2023-11-21T09:13:52;101779.09;;;11.78;92.95
81033;BME280;70514;52.478;6.102;2023-11-21T09:16:20;101774.19;;;11.90;92.13
81033;BME280;70514;52.478;6.102;2023-11-21T09:18:48;101784.56;;;11.93;91.55
81033;BME280;70514;52.478;6.102;2023-11-21T09:21:16;101783.78;;;11.99;90.94
81033;BME280;70514;52.478;6.102;2023-11-21T09:23:44;101792.84;;;12.25;89.05
81033;BME280;70514;52.478;6.102;2023-11-21T09:26:12;101804.84;;;11.74;91.62
81033;BME280;70514;52.478;6.102;2023-11-21T09:28:40;101806.75;;;11.84;91.58
81033;BME280;70514;52.478;6.102;2023-11-21T09:31:10;101822.09;;;11.78;91.77
81033;BME280;70514;52.478;6.102;2023-11-21T09:33:38;101822.28;;;11.87;91.09
81033;BME280;70514;52.478;6.102;2023-11-21T09:36:10;101825.13;;;12.02;90.07
81033;BME280;70514;52.478;6.102;2023-11-21T09:38:38;101820.47;;;11.83;90.91
81033;BME280;70514;52.478;6.102;2023-11-21T09:41:14;101825.75;;;11.89;90.76
81033;BME280;70514;52.478;6.102;2023-11-21T09:43:46;101826.38;;;11.76;90.83
81033;BME280;70514;52.478;6.102;2023-11-21T09:46:16;101829.34;;;11.54;92.09
81033;BME280;70514;52.478;6.102;2023-11-21T09:48:50;101832.31;;;11.31;94.11
81033;BME280;70514;52.478;6.102;2023-11-21T09:51:20;101837.66;;;11.82;91.52
81033;BME280;70514;52.478;6.102;2023-11-21T09:53:50;101844.47;;;11.37;93.80
81033;BME280;70514;52.478;6.102;2023-11-21T09:56:21;101850.44;;;11.75;91.85
81033;BME280;70514;52.478;6.102;2023-11-21T09:58:52;101845.94;;;11.68;91.61
81033;BME280;70514;52.478;6.102;2023-11-21T10:01:20;101853.44;;;11.54;92.56
81033;BME280;70514;52.478;6.102;2023-11-21T10:03:50;101847.75;;;11.70;91.51
81033;BME280;70514;52.478;6.102;2023-11-21T10:06:18;101852.56;;;11.54;92.77
81033;BME280;70514;52.478;6.102;2023-11-21T10:08:47;101863.31;;;11.73;91.22
81033;BME280;70514;52.478;6.102;2023-11-21T10:11:26;101860.94;;;11.84;90.50
81033;BME280;70514;52.478;6.102;2023-11-21T10:13:55;101873.34;;;11.61;91.96
81033;BME280;70514;52.478;6.102;2023-11-21T10:16:26;101876.47;;;11.87;90.16
81033;BME280;70514;52.478;6.102;2023-11-21T10:18:55;101883.69;;;11.63;91.20
81033;BME280;70514;52.478;6.102;2023-11-21T10:21:38;101884.38;;;11.54;92.10
81033;BME280;70514;52.478;6.102;2023-11-21T10:24:07;101891.78;;;11.78;91.03
81033;BME280;70514;52.478;6.102;2023-11-21T10:26:35;101887.22;;;11.68;91.35
81033;BME280;70514;52.478;6.102;2023-11-21T10:29:19;101897.84;;;11.81;91.04
81033;BME280;70514;52.478;6.102;2023-11-21T10:31:52;101909.72;;;12.15;88.89
81033;BME280;70514;52.478;6.102;2023-11-21T10:34:22;101902.34;;;12.35;87.35
81033;BME280;70514;52.478;6.102;2023-11-21T10:36:50;101914.56;;;12.44;86.71
81033;BME280;70514;52.478;6.102;2023-11-21T10:39:19;101910.84;;;12.29;87.58
81033;BME280;70514;52.478;6.102;2023-11-21T10:41:48;101914.72;;;12.06;89.45
81033;BME280;70514;52.478;6.102;2023-11-21T10:44:19;101915.03;;;12.21;88.11
81033;BME280;70514;52.478;6.102;2023-11-21T10:46:53;101909.34;;;11.97;88.91
81033;BME280;70514;52.478;6.102;2023-11-21T10:49:27;101924.81;;;11.94;89.62
81033;BME280;70514;52.478;6.102;2023-11-21T10:51:56;101921.97;;;11.82;90.21
81033;BME280;70514;52.478;6.102;2023-11-21T10:54:24;101924.22;;;11.68;90.83
81033;BME280;70514;52.478;6.102;2023-11-21T10:56:56;101931.25;;;11.74;91.09
81033;BME280;70514;52.478;6.102;2023-11-21T10:59:29;101929.25;;;12.01;89.59
81033;BME280;70514;52.478;6.102;2023-11-21T11:02:01;101925.28;;;11.76;90.57
81033;BME280;70514;52.478;6.102;2023-11-21T11:04:35;101927.34;;;11.91;90.22
81033;BME280;70514;52.478;6.102;2023-11-21T11:07:08;101927.19;;;12.28;87.99
81033;BME280;70514;52.478;6.102;2023-11-21T11:09:39;101932.72;;;12.02;89.04
81033;BME280;70514;52.478;6.102;2023-11-21T11:12:08;101941.97;;;12.35;87.68
81033;BME280;70514;52.478;6.102;2023-11-21T11:14:40;101938.94;;;12.13;88.31
81033;BME280;70514;52.478;6.102;2023-11-21T11:17:10;101940.53;;;12.06;88.91
81033;BME280;70514;52.478;6.102;2023-11-21T11:19:38;101948.72;;;11.87;89.96
81033;BME280;70514;52.478;6.102;2023-11-21T11:22:25;101949.56;;;11.84;90.15
81033;BME280;70514;52.478;6.102;2023-11-21T11:25:25;101960.25;;;12.03;88.98
81033;BME280;70514;52.478;6.102;2023-11-21T11:28:06;101963.75;;;12.05;88.59
81033;BME280;70514;52.478;6.102;2023-11-21T11:30:44;101951.97;;;12.17;87.89
81033;BME280;70514;52.478;6.102;2023-11-21T11:33:33;101958.66;;;12.09;87.94
81033;BME280;70514;52.478;6.102;2023-11-21T11:36:28;101967.31;;;12.11;88.24
81033;BME280;70514;52.478;6.102;2023-11-21T11:38:57;101978.16;;;11.95;88.76
81033;BME280;70514;52.478;6.102;2023-11-21T11:41:31;101970.34;;;11.90;88.96
81033;BME280;70514;52.478;6.102;2023-11-21T11:44:01;101980.59;;;12.29;87.44
81033;BME280;70514;52.478;6.102;2023-11-21T11:46:42;101978.03;;;11.89;87.88
81033;BME280;70514;52.478;6.102;2023-11-21T11:49:27;101982.97;;;11.78;89.62
81033;BME280;70514;52.478;6.102;2023-11-21T11:52:33;101993.34;;;11.80;89.95
81033;BME280;70514;52.478;6.102;2023-11-21T11:55:03;102001.75;;;11.37;91.65
81033;BME280;70514;52.478;6.102;2023-11-21T11:57:34;102005.63;;;11.54;90.80
81033;BME280;70514;52.478;6.102;2023-11-21T12:02:46;102008.19;;;11.90;88.51
81033;BME280;70514;52.478;6.102;2023-11-21T12:05:16;102010.81;;;11.91;87.81
81033;BME280;70514;52.478;6.102;2023-11-21T12:07:50;102012.28;;;11.46;90.60
81033;BME280;70514;52.478;6.102;2023-11-21T12:10:23;102015.84;;;11.49;90.46
81033;BME280;70514;52.478;6.102;2023-11-21T12:12:57;102028.53;;;11.42;91.45
81033;BME280;70514;52.478;6.102;2023-11-21T12:15:25;102029.97;;;11.29;92.68
81033;BME280;70514;52.478;6.102;2023-11-21T12:17:56;102035.13;;;11.65;90.87
81033;BME280;70514;52.478;6.102;2023-11-21T12:20:25;102040.50;;;11.74;89.87
81033;BME280;70514;52.478;6.102;2023-11-21T12:22:55;102044.06;;;11.11;92.85
81033;BME280;70514;52.478;6.102;2023-11-21T12:25:24;102042.97;;;11.70;91.06
81033;BME280;70514;52.478;6.102;2023-11-21T12:27:56;102036.22;;;11.75;89.21
81033;BME280;70514;52.478;6.102;2023-11-21T12:30:26;102049.38;;;11.49;90.55
81033;BME280;70514;52.478;6.102;2023-11-21T12:32:59;102047.16;;;11.30;92.11
81033;BME280;70514;52.478;6.102;2023-11-21T12:35:32;102040.34;;;10.98;91.20
81033;BME280;70514;52.478;6.102;2023-11-21T12:38:03;102051.53;;;11.33;90.00
81033;BME280;70514;52.478;6.102;2023-11-21T12:40:32;102054.53;;;10.84;92.90
81033;BME280;70514;52.478;6.102;2023-11-21T12:43:00;102052.34;;;11.32;91.60
81033;BME280;70514;52.478;6.102;2023-11-21T12:45:29;102050.03;;;11.08;92.49
81033;BME280;70514;52.478;6.102;2023-11-21T12:48:03;102052.41;;;11.33;92.04
81033;BME280;70514;52.478;6.102;2023-11-21T12:50:37;102053.00;;;11.23;91.71
81033;BME280;70514;52.478;6.102;2023-11-21T12:53:07;102049.94;;;11.05;93.73
81033;BME280;70514;52.478;6.102;2023-11-21T12:55:36;102058.38;;;10.98;91.89
81033;BME280;70514;52.478;6.102;2023-11-21T12:58:08;102061.53;;;11.21;92.41
81033;BME280;70514;52.478;6.102;2023-11-21T13:00:42;102057.97;;;10.53;93.79
81033;BME280;70514;52.478;6.102;2023-11-21T13:03:12;102059.88;;;10.29;96.14